createdAt,value
2023-03-11T00:00:22.781Z,100.00
2023-03-11T00:02:51.378Z,100.00
2023-03-11T00:05:24.202Z,100.00
2023-03-11T00:07:51.448Z,100.00
2023-03-11T00:10:25.338Z,100.00
2023-03-11T00:12:51.841Z,100.00
2023-03-11T00:15:18.874Z,100.00
2023-03-11T00:17:47.003Z,100.00
2023-03-11T00:20:25.761Z,100.00
2023-03-11T00:22:52.784Z,100.00
2023-03-11T00:25:20.367Z,100.00
2023-03-11T00:27:46.854Z,100.00
2023-03-11T00:30:14.778Z,100.00
2023-03-11T00:32:41.489Z,100.00
2023-03-11T00:35:08.995Z,100.00
2023-03-11T00:37:35.437Z,100.00
2023-03-11T00:40:01.870Z,100.00
2023-03-11T00:42:28.703Z,100.00
2023-03-11T00:44:55.128Z,100.00
2023-03-11T00:47:21.775Z,100.00
2023-03-11T00:49:48.247Z,100.00
2023-03-11T00:52:15.111Z,100.00
2023-03-11T00:54:41.490Z,100.00
2023-03-11T00:57:08.248Z,100.00
2023-03-11T00:59:35.634Z,100.00
2023-03-11T01:02:02.034Z,100.00
2023-03-11T01:04:28.636Z,100.00
2023-03-11T01:06:55.069Z,100.00
2023-03-11T01:09:21.709Z,100.00
2023-03-11T01:11:48.183Z,100.00
2023-03-11T01:14:14.844Z,100.00
2023-03-11T01:16:41.246Z,100.00
2023-03-11T01:19:08.662Z,100.00
2023-03-11T01:21:35.145Z,100.00
2023-03-11T01:24:01.537Z,100.00
2023-03-11T01:26:27.981Z,100.00
2023-03-11T01:28:55.780Z,100.00
2023-03-11T01:31:22.271Z,100.00
2023-03-11T01:33:49.088Z,100.00
2023-03-11T01:36:15.523Z,100.00
2023-03-11T01:38:41.905Z,100.00
2023-03-11T01:41:11.146Z,100.00
2023-03-11T01:43:43.808Z,100.00
2023-03-11T01:46:13.592Z,100.00
2023-03-11T01:48:46.571Z,100.00
2023-03-11T01:51:13.564Z,100.00
2023-03-11T01:53:40.198Z,100.00
2023-03-11T01:56:07.112Z,100.00
2023-03-11T01:58:40.717Z,100.00
2023-03-11T02:01:07.657Z,100.00
2023-03-11T02:03:37.666Z,100.00
2023-03-11T02:06:08.156Z,100.00
2023-03-11T02:08:36.027Z,100.00
2023-03-11T02:11:08.128Z,100.00
2023-03-11T02:13:36.122Z,100.00
2023-03-11T02:16:04.189Z,100.00
2023-03-11T02:18:31.575Z,100.00
2023-03-11T02:25:34.549Z,100.00
2023-03-11T02:28:05.332Z,100.00
2023-03-11T02:30:34.485Z,100.00
2023-03-11T02:33:02.090Z,100.00
2023-03-11T02:35:28.805Z,100.00
2023-03-11T02:37:56.128Z,100.00
2023-03-11T02:40:23.221Z,100.00
2023-03-11T02:43:02.546Z,100.00
2023-03-11T02:45:30.630Z,100.00
2023-03-11T02:47:59.436Z,99.86
2023-03-11T02:50:28.479Z,100.00
2023-03-11T02:52:55.410Z,100.00
2023-03-11T02:55:22.967Z,99.76
2023-03-11T02:57:50.021Z,100.00
2023-03-11T03:00:17.704Z,100.00
2023-03-11T03:02:52.235Z,100.00
2023-03-11T03:05:20.762Z,99.12
2023-03-11T03:07:48.343Z,98.64
2023-03-11T03:10:16.182Z,97.99
2023-03-11T03:12:42.641Z,97.59
2023-03-11T03:15:11.017Z,98.04
2023-03-11T03:17:38.128Z,97.27
2023-03-11T03:20:11.246Z,98.33
2023-03-11T03:22:41.030Z,98.37
2023-03-11T03:25:10.618Z,98.06
2023-03-11T03:27:38.528Z,98.69
2023-03-11T03:30:08.159Z,97.78
2023-03-11T03:32:35.808Z,97.78
2023-03-11T03:35:03.853Z,97.92
2023-03-11T03:37:51.989Z,97.98
2023-03-11T03:40:21.207Z,97.56
2023-03-11T03:42:47.724Z,97.85
2023-03-11T03:45:14.755Z,97.98
2023-03-11T03:47:41.252Z,98.18
2023-03-11T03:50:10.216Z,97.58
2023-03-11T03:52:38.589Z,97.40
2023-03-11T03:55:05.726Z,98.58
2023-03-11T03:57:32.485Z,98.06
2023-03-11T03:59:59.072Z,98.00
2023-03-11T04:02:25.965Z,98.01
2023-03-11T04:04:53.892Z,97.35
2023-03-11T04:07:20.393Z,97.47
2023-03-11T04:09:47.127Z,97.01
2023-03-11T04:12:15.412Z,96.44
2023-03-11T04:14:42.097Z,96.08
2023-03-11T04:17:11.916Z,96.09
2023-03-11T04:19:39.225Z,96.99
2023-03-11T04:22:05.969Z,98.72
2023-03-11T04:24:33.134Z,98.13
2023-03-11T04:26:59.711Z,98.49
2023-03-11T04:29:26.180Z,99.09
2023-03-11T04:31:53.768Z,98.55
2023-03-11T04:34:20.797Z,98.23
2023-03-11T04:36:47.377Z,98.71
2023-03-11T04:39:16.035Z,99.38
2023-03-11T04:41:44.167Z,99.79
2023-03-11T04:44:15.442Z,99.15
2023-03-11T04:46:42.090Z,100.00
2023-03-11T04:49:10.292Z,100.00
2023-03-11T04:51:37.297Z,100.00
2023-03-11T04:54:04.853Z,100.00
2023-03-11T04:56:31.319Z,100.00
2023-03-11T04:58:59.342Z,100.00
2023-03-11T05:01:27.645Z,100.00
2023-03-11T05:03:55.632Z,100.00
2023-03-11T05:06:22.048Z,100.00
2023-03-11T05:08:48.668Z,100.00
2023-03-11T05:11:15.292Z,100.00
2023-03-11T05:13:44.189Z,100.00
2023-03-11T05:16:11.337Z,100.00
2023-03-11T05:18:38.067Z,100.00
2023-03-11T05:21:05.219Z,100.00
2023-03-11T05:23:33.474Z,100.00
2023-03-11T05:26:01.070Z,100.00
2023-03-11T05:28:29.236Z,100.00
2023-03-11T05:30:55.845Z,100.00
2023-03-11T05:33:22.865Z,100.00
2023-03-11T05:35:51.828Z,100.00
2023-03-11T05:38:19.332Z,100.00
2023-03-11T05:40:45.843Z,100.00
2023-03-11T05:43:12.444Z,100.00
2023-03-11T05:45:41.534Z,100.00
2023-03-11T05:48:08.096Z,100.00
2023-03-11T05:50:37.627Z,100.00
2023-03-11T05:53:04.062Z,100.00
2023-03-11T05:55:31.277Z,100.00
2023-03-11T05:57:57.754Z,100.00
2023-03-11T06:00:24.234Z,100.00
2023-03-11T06:02:52.713Z,100.00
2023-03-11T06:05:19.820Z,100.00
2023-03-11T06:07:48.387Z,100.00
2023-03-11T06:10:14.989Z,100.00
2023-03-11T06:12:41.939Z,100.00
2023-03-11T06:15:30.140Z,100.00
2023-03-11T06:17:56.777Z,100.00
2023-03-11T06:20:24.955Z,100.00
2023-03-11T06:22:52.455Z,100.00
2023-03-11T06:25:22.540Z,100.00
2023-03-11T06:27:53.625Z,100.00
2023-03-11T06:30:22.184Z,100.00
2023-03-11T06:32:56.113Z,100.00
2023-03-11T06:35:22.806Z,100.00
2023-03-11T06:37:49.248Z,100.00
2023-03-11T06:40:16.030Z,100.00
2023-03-11T06:42:42.626Z,100.00
2023-03-11T06:45:11.019Z,100.00
2023-03-11T06:47:38.259Z,100.00
2023-03-11T06:50:07.283Z,100.00
2023-03-11T06:52:33.741Z,100.00
2023-03-11T06:55:00.244Z,100.00
2023-03-11T06:57:27.827Z,100.00
2023-03-11T06:59:56.289Z,100.00
2023-03-11T07:02:22.688Z,100.00
2023-03-11T07:04:49.869Z,100.00
2023-03-11T07:07:18.475Z,100.00
2023-03-11T07:09:44.948Z,100.00
2023-03-11T07:12:14.826Z,100.00
2023-03-11T07:14:41.520Z,100.00
2023-03-11T07:17:08.005Z,100.00
2023-03-11T07:19:44.091Z,100.00
2023-03-11T07:22:10.469Z,100.00
2023-03-11T07:24:37.165Z,100.00
2023-03-11T07:27:03.734Z,99.69
2023-03-11T07:29:30.151Z,99.45
2023-03-11T07:31:56.590Z,98.86
2023-03-11T07:34:23.068Z,98.49
2023-03-11T07:36:49.563Z,98.67
2023-03-11T07:39:18.887Z,98.82
2023-03-11T07:41:45.862Z,99.04
2023-03-11T07:44:13.729Z,98.22
2023-03-11T07:46:40.951Z,97.59
2023-03-11T07:49:07.926Z,96.45
2023-03-11T07:51:37.102Z,95.63
2023-03-11T07:54:04.655Z,95.64
2023-03-11T07:56:34.826Z,95.73
2023-03-11T07:59:03.008Z,94.33
2023-03-11T08:01:35.958Z,93.23
2023-03-11T08:04:05.161Z,94.06
2023-03-11T08:06:33.346Z,94.57
2023-03-11T08:09:01.243Z,94.10
2023-03-11T08:11:28.321Z,92.97
2023-03-11T08:13:55.076Z,91.63
2023-03-11T08:16:22.371Z,91.03
2023-03-11T08:18:50.441Z,90.61
2023-03-11T08:21:20.009Z,90.56
2023-03-11T08:23:46.396Z,89.87
2023-03-11T08:26:18.071Z,91.68
2023-03-11T08:28:44.961Z,92.73
2023-03-11T08:31:16.267Z,90.47
2023-03-11T08:33:44.707Z,90.07
2023-03-11T08:36:11.873Z,91.65
2023-03-11T08:38:38.963Z,92.37
2023-03-11T08:41:05.614Z,89.42
2023-03-11T08:43:32.417Z,89.64
2023-03-11T08:46:03.386Z,87.68
2023-03-11T08:48:30.103Z,88.91
2023-03-11T08:50:56.527Z,87.20
2023-03-11T08:53:23.056Z,85.17
2023-03-11T08:55:51.339Z,84.25
2023-03-11T08:58:19.117Z,84.25
2023-03-11T09:00:46.178Z,82.90
2023-03-11T09:03:13.445Z,83.94
2023-03-11T09:05:39.983Z,83.72
2023-03-11T09:08:06.375Z,83.92
2023-03-11T09:10:33.300Z,79.15
2023-03-11T09:12:59.690Z,75.96
2023-03-11T09:15:26.666Z,75.93
2023-03-11T09:17:53.851Z,79.54
2023-03-11T09:20:20.423Z,77.75
2023-03-11T09:22:47.177Z,77.73
2023-03-11T09:25:14.518Z,77.88
2023-03-11T09:27:41.316Z,75.46
2023-03-11T09:30:09.901Z,79.55
2023-03-11T09:32:37.115Z,78.08
2023-03-11T09:35:04.036Z,73.27
2023-03-11T09:37:30.810Z,68.53
2023-03-11T09:39:57.247Z,65.86
2023-03-11T09:42:42.695Z,69.82
2023-03-11T09:45:16.723Z,67.24
2023-03-11T09:47:55.550Z,64.20
2023-03-11T09:50:32.303Z,63.96
2023-03-11T09:53:23.543Z,64.61
2023-03-11T09:55:58.530Z,63.28
2023-03-11T09:58:24.866Z,62.55
2023-03-11T10:00:52.138Z,61.65
2023-03-11T10:03:32.540Z,58.44
2023-03-11T10:06:11.751Z,57.02
2023-03-11T10:08:52.201Z,64.97
2023-03-11T10:11:33.593Z,62.65
2023-03-11T10:14:09.053Z,63.86
2023-03-11T10:16:50.110Z,63.38
2023-03-11T10:19:25.623Z,63.94
2023-03-11T10:22:26.831Z,67.65
2023-03-11T10:25:03.091Z,68.75
2023-03-11T10:27:35.027Z,74.13
2023-03-11T10:30:23.074Z,72.49
2023-03-11T10:33:17.259Z,66.63
2023-03-11T10:35:48.076Z,65.04
2023-03-11T10:38:48.105Z,59.35
2023-03-11T10:41:42.136Z,61.76
2023-03-11T10:44:16.659Z,63.23
2023-03-11T10:46:43.052Z,59.64
2023-03-11T10:49:15.372Z,57.80
2023-03-11T10:51:46.020Z,58.28
2023-03-11T10:54:28.205Z,57.16
2023-03-11T10:56:58.120Z,56.37
2023-03-11T10:59:27.302Z,57.24
2023-03-11T11:02:27.886Z,58.95
2023-03-11T11:05:16.038Z,60.60
2023-03-11T11:07:43.839Z,62.36
2023-03-11T11:10:23.586Z,66.28
2023-03-11T11:13:08.293Z,66.96
2023-03-11T11:15:37.372Z,63.72
2023-03-11T11:18:07.240Z,58.50
2023-03-11T11:20:34.317Z,53.58
2023-03-11T11:23:03.553Z,55.36
2023-03-11T11:25:34.846Z,50.68
2023-03-11T11:28:14.518Z,52.30
2023-03-11T11:31:05.223Z,51.95
2023-03-11T11:33:38.522Z,47.24
2023-03-11T11:36:06.890Z,47.48
2023-03-11T11:38:34.114Z,46.26
2023-03-11T11:41:04.769Z,51.77
2023-03-11T11:43:46.249Z,54.61
2023-03-11T11:46:21.372Z,54.48
2023-03-11T11:48:57.742Z,52.52
2023-03-11T11:51:35.120Z,53.93
2023-03-11T11:54:15.241Z,46.65
2023-03-11T11:56:41.934Z,40.15
2023-03-11T11:59:17.810Z,40.51
2023-03-11T12:02:08.572Z,39.10
2023-03-11T12:04:49.942Z,43.04
2023-03-11T12:07:22.040Z,40.22
2023-03-11T12:09:58.285Z,45.49
2023-03-11T12:13:12.559Z,39.16
2023-03-11T12:15:44.039Z,39.77
2023-03-11T12:18:19.424Z,37.75
2023-03-11T12:20:52.116Z,40.26
2023-03-11T12:23:24.614Z,37.45
2023-03-11T12:26:00.175Z,38.29
2023-03-11T12:28:39.602Z,40.85
2023-03-11T12:31:10.386Z,37.81
2023-03-11T12:33:38.696Z,36.12
2023-03-11T12:36:07.034Z,40.04
2023-03-11T12:38:40.155Z,38.12
2023-03-11T12:41:26.285Z,38.13
2023-03-11T12:43:52.631Z,38.46
2023-03-11T12:46:19.529Z,39.63
2023-03-11T12:48:50.322Z,43.25
2023-03-11T12:51:34.050Z,38.30
2023-03-11T12:54:20.741Z,35.95
2023-03-11T12:57:14.462Z,38.55
2023-03-11T13:00:18.286Z,39.59
2023-03-11T13:03:13.839Z,35.77
2023-03-11T13:06:16.636Z,34.92
2023-03-11T13:08:49.755Z,35.06
2023-03-11T13:11:31.389Z,34.35
2023-03-11T13:14:29.371Z,33.32
2023-03-11T13:16:57.828Z,32.67
2023-03-11T13:19:26.984Z,31.05
2023-03-11T13:21:54.728Z,31.71
2023-03-11T13:24:22.022Z,30.53
2023-03-11T13:26:56.971Z,31.71
2023-03-11T13:29:26.341Z,30.78
2023-03-11T13:32:30.547Z,30.41
2023-03-11T13:35:00.051Z,31.23
2023-03-11T13:38:05.652Z,30.72
2023-03-11T13:40:39.411Z,30.26
2023-03-11T13:43:24.969Z,28.92
2023-03-11T13:46:09.979Z,27.56
2023-03-11T13:48:42.076Z,28.52
2023-03-11T13:51:16.859Z,28.04
2023-03-11T13:54:02.417Z,28.04
2023-03-11T13:56:44.343Z,29.13
2023-03-11T13:59:28.486Z,28.42
2023-03-11T14:02:17.148Z,28.94
2023-03-11T14:05:06.869Z,29.55
2023-03-11T14:07:35.294Z,28.82
2023-03-11T14:10:20.710Z,30.16
2023-03-11T14:12:48.314Z,31.63
2023-03-11T14:15:20.450Z,31.60
2023-03-11T14:17:48.766Z,31.35
2023-03-11T14:20:18.176Z,32.47
2023-03-11T14:22:51.002Z,32.28
2023-03-11T14:25:21.932Z,31.85
2023-03-11T14:27:53.900Z,31.16
2023-03-11T14:30:26.342Z,30.02
2023-03-11T14:33:06.322Z,31.56
2023-03-11T14:35:34.248Z,31.76
2023-03-11T14:38:01.327Z,32.05
2023-03-11T14:40:31.473Z,29.38
2023-03-11T14:43:01.960Z,29.76
2023-03-11T14:45:32.614Z,30.41
2023-03-11T14:48:15.016Z,31.14
2023-03-11T14:50:44.660Z,29.43
2023-03-11T14:53:19.424Z,32.17
2023-03-11T14:55:57.999Z,32.42
2023-03-11T14:58:39.888Z,31.27
2023-03-11T15:01:15.461Z,30.49
2023-03-11T15:03:50.409Z,31.87
2023-03-11T15:06:20.118Z,31.35
2023-03-11T15:08:50.398Z,33.13
2023-03-11T15:11:16.687Z,33.81
2023-03-11T15:13:47.217Z,33.42
2023-03-11T15:16:31.156Z,33.85
2023-03-11T15:19:20.226Z,34.01
2023-03-11T15:21:48.172Z,34.92
2023-03-11T15:24:25.879Z,34.52
2023-03-11T15:26:56.757Z,35.98
2023-03-11T15:29:25.069Z,35.36
2023-03-11T15:31:51.574Z,34.54
2023-03-11T15:34:17.908Z,32.87
2023-03-11T15:36:47.440Z,33.70
2023-03-11T15:39:32.008Z,34.19
2023-03-11T15:42:01.089Z,35.68
2023-03-11T15:44:33.288Z,36.34
2023-03-11T15:47:00.711Z,35.85
2023-03-11T15:49:28.537Z,34.27
2023-03-11T15:52:02.048Z,33.93
2023-03-11T15:54:28.959Z,35.62
2023-03-11T15:56:58.444Z,36.29
2023-03-11T15:59:25.533Z,35.30
2023-03-11T16:01:51.918Z,36.57
2023-03-11T16:04:20.578Z,35.75
2023-03-11T16:06:59.471Z,36.61
2023-03-11T16:09:34.157Z,37.37
2023-03-11T16:12:01.807Z,36.59
2023-03-11T16:14:28.209Z,34.41
2023-03-11T16:16:54.607Z,35.69
2023-03-11T16:19:20.993Z,37.52
2023-03-11T16:21:50.155Z,36.59
2023-03-11T16:24:21.215Z,36.25
2023-03-11T16:26:48.024Z,36.48
2023-03-11T16:29:19.484Z,38.50
2023-03-11T16:31:46.433Z,36.38
2023-03-11T16:34:12.827Z,37.71
2023-03-11T16:36:39.209Z,37.50
2023-03-11T16:39:05.758Z,37.22
2023-03-11T16:41:43.834Z,36.71
2023-03-11T16:44:10.438Z,39.78
2023-03-11T16:46:37.456Z,43.58
2023-03-11T16:49:05.095Z,45.37
2023-03-11T16:51:31.555Z,42.75
2023-03-11T16:53:57.947Z,40.99
2023-03-11T16:56:24.631Z,42.46
2023-03-11T16:58:51.348Z,41.69
2023-03-11T17:01:19.067Z,46.73
2023-03-11T17:03:48.509Z,44.84
2023-03-11T17:06:16.947Z,40.06
2023-03-11T17:08:48.747Z,38.96
2023-03-11T17:11:20.589Z,44.40
2023-03-11T17:13:46.982Z,46.53
2023-03-11T17:16:13.663Z,51.04
2023-03-11T17:18:40.112Z,53.38
2023-03-11T17:21:12.114Z,55.39
2023-03-11T17:23:38.834Z,57.04
2023-03-11T17:26:09.910Z,57.36
2023-03-11T17:28:37.007Z,57.38
2023-03-11T17:31:03.619Z,56.40
2023-03-11T17:33:30.166Z,54.95
2023-03-11T17:36:01.645Z,55.90
2023-03-11T17:38:29.319Z,58.68
2023-03-11T17:40:56.430Z,60.65
2023-03-11T17:43:23.401Z,60.89
2023-03-11T17:45:50.122Z,62.62
2023-03-11T17:48:16.808Z,61.60
2023-03-11T17:50:43.396Z,61.93
2023-03-11T17:53:09.792Z,64.04
2023-03-11T17:55:39.546Z,65.93
2023-03-11T17:58:06.141Z,66.56
2023-03-11T18:00:32.760Z,68.14
2023-03-11T18:02:59.171Z,69.67
2023-03-11T18:05:25.660Z,70.39
2023-03-11T18:07:52.216Z,70.64
2023-03-11T18:10:20.021Z,70.66
2023-03-11T18:12:47.446Z,71.49
2023-03-11T18:15:18.797Z,72.45
2023-03-11T18:17:48.741Z,73.84
2023-03-11T18:20:16.383Z,74.21
2023-03-11T18:22:46.779Z,75.25
2023-03-11T18:25:13.823Z,76.67
2023-03-11T18:27:41.119Z,77.24
2023-03-11T18:30:10.525Z,78.04
2023-03-11T18:32:37.378Z,78.18
2023-03-11T18:35:04.791Z,79.35
2023-03-11T18:37:32.688Z,80.31
2023-03-11T18:39:59.529Z,80.68
2023-03-11T18:42:25.972Z,81.17
2023-03-11T18:44:52.358Z,81.57
2023-03-11T18:47:18.761Z,81.93
2023-03-11T18:49:46.316Z,82.40
2023-03-11T18:52:13.025Z,83.10
2023-03-11T18:54:39.627Z,83.53
2023-03-11T18:57:06.098Z,84.13
2023-03-11T18:59:32.740Z,84.04
2023-03-11T19:01:59.177Z,84.73
2023-03-11T19:04:25.611Z,85.51
2023-03-11T19:06:52.285Z,86.17
2023-03-11T19:09:18.728Z,86.88
2023-03-11T19:11:46.228Z,87.61
2023-03-11T19:14:12.879Z,88.42
2023-03-11T19:16:39.314Z,88.74
2023-03-11T19:19:05.689Z,89.13
2023-03-11T19:21:32.060Z,88.85
2023-03-11T19:23:59.848Z,89.23
2023-03-11T19:26:43.207Z,89.81
2023-03-11T19:29:10.706Z,89.94
2023-03-11T19:31:37.454Z,89.76
2023-03-11T19:34:03.908Z,90.55
2023-03-11T19:36:30.300Z,91.02
2023-03-11T19:38:56.695Z,91.51
2023-03-11T19:41:23.181Z,91.87
2023-03-11T19:43:49.715Z,92.12
2023-03-11T19:46:18.896Z,92.69
2023-03-11T19:48:45.319Z,92.98
2023-03-11T19:51:12.047Z,93.58
2023-03-11T19:53:40.390Z,93.29
2023-03-11T19:56:07.382Z,93.46
2023-03-11T19:58:33.939Z,94.01
2023-03-11T20:01:02.010Z,94.46
2023-03-11T20:03:29.072Z,94.66
2023-03-11T20:05:57.760Z,94.74
2023-03-11T20:08:25.306Z,94.17
2023-03-11T20:10:53.180Z,94.10
2023-03-11T20:13:21.700Z,94.23
2023-03-11T20:15:48.665Z,93.95
2023-03-11T20:18:15.440Z,93.74
2023-03-11T20:20:43.133Z,93.92
2023-03-11T20:23:10.352Z,93.49
2023-03-11T20:25:40.921Z,92.74
2023-03-11T20:28:07.493Z,92.55
2023-03-11T20:30:34.657Z,92.91
2023-03-11T20:33:01.345Z,92.79
2023-03-11T20:35:27.772Z,93.07
2023-03-11T20:37:54.324Z,92.77
2023-03-11T20:40:21.204Z,93.50
2023-03-11T20:42:47.904Z,93.14
2023-03-11T20:45:17.392Z,93.05
2023-03-11T20:47:44.321Z,93.48
2023-03-11T20:50:12.501Z,93.38
2023-03-11T20:52:39.073Z,93.51
2023-03-11T20:55:08.199Z,93.81
2023-03-11T20:57:35.099Z,93.92
2023-03-11T21:00:01.721Z,93.96
2023-03-11T21:02:30.829Z,93.54
2023-03-11T21:04:57.485Z,93.48
2023-03-11T21:07:24.006Z,93.55
2023-03-11T21:09:54.368Z,93.54
2023-03-11T21:12:21.841Z,94.24
2023-03-11T21:14:48.446Z,94.47
2023-03-11T21:17:15.349Z,94.55
2023-03-11T21:19:42.043Z,94.97
2023-03-11T21:22:08.475Z,95.19
2023-03-11T21:24:34.872Z,95.35
2023-03-11T21:27:01.345Z,95.23
2023-03-11T21:29:28.661Z,95.37
2023-03-11T21:31:55.172Z,95.56
2023-03-11T21:34:21.726Z,95.57
2023-03-11T21:36:48.329Z,95.30
2023-03-11T21:39:15.190Z,95.80
2023-03-11T21:41:41.762Z,96.03
2023-03-11T21:44:08.340Z,96.18
2023-03-11T21:46:34.937Z,97.00
2023-03-11T21:49:01.691Z,97.39
2023-03-11T21:51:29.219Z,98.08
2023-03-11T21:53:56.284Z,98.61
2023-03-11T21:56:22.739Z,98.69
2023-03-11T21:58:50.028Z,99.52
2023-03-11T22:01:16.716Z,99.85
2023-03-11T22:03:43.777Z,100.00
2023-03-11T22:06:12.324Z,100.00
2023-03-11T22:08:39.526Z,100.00
2023-03-11T22:11:13.752Z,100.00
2023-03-11T22:13:40.355Z,100.00
2023-03-11T22:16:07.535Z,100.00
2023-03-11T22:18:34.353Z,100.00
2023-03-11T22:21:01.373Z,100.00
2023-03-11T22:23:28.211Z,100.00
2023-03-11T22:25:55.057Z,100.00
2023-03-11T22:28:22.173Z,100.00
2023-03-11T22:30:48.583Z,100.00
2023-03-11T22:33:15.008Z,100.00
2023-03-11T22:35:49.448Z,100.00
2023-03-11T22:38:15.901Z,100.00
2023-03-11T22:40:42.267Z,100.00
2023-03-11T22:43:09.268Z,99.31
2023-03-11T22:45:35.691Z,98.93
2023-03-11T22:48:02.109Z,98.66
2023-03-11T22:50:28.487Z,99.16
2023-03-11T22:52:55.122Z,99.92
2023-03-11T22:55:21.553Z,100.00
2023-03-11T22:57:47.979Z,100.00
2023-03-11T23:00:17.776Z,100.00
2023-03-11T23:02:48.649Z,100.00
2023-03-11T23:05:15.942Z,100.00
2023-03-11T23:07:42.931Z,100.00
2023-03-11T23:10:11.145Z,100.00
2023-03-11T23:12:38.641Z,100.00
2023-03-11T23:15:08.752Z,99.92
2023-03-11T23:17:35.526Z,99.43
2023-03-11T23:20:04.721Z,100.00
2023-03-11T23:22:34.327Z,99.67
2023-03-11T23:25:02.164Z,99.45
2023-03-11T23:27:29.031Z,98.49
2023-03-11T23:29:55.547Z,96.12
2023-03-11T23:32:21.917Z,94.68
2023-03-11T23:34:48.379Z,92.99
2023-03-11T23:37:14.834Z,91.55
2023-03-11T23:39:41.347Z,91.51
2023-03-11T23:42:22.599Z,91.58
2023-03-11T23:44:51.812Z,90.75
2023-03-11T23:47:18.273Z,90.65
2023-03-11T23:49:44.656Z,90.25
2023-03-11T23:52:11.101Z,90.14
2023-03-11T23:54:37.495Z,90.60
2023-03-11T23:57:03.874Z,90.11
2023-03-11T23:59:30.409Z,90.54
